^^
Datos históricos de la estación: Murcia-Puente Tocinos
Diario Informe para Abril 20, 2019 Unidades:  Métrico    Inglés   Ambas
Diario Semanal Mensual Anual Configurable
  Máximo: Mínimo: Media:
Temperatura: 14.2 °C 11.5 °C 13.3 °C
Punto de rocio: 13.4 °C 10.9 °C 12.6 °C
Humedad: 98% 91% 96%
Velocidad viento: 34.6km/h 2.3km/h 11.2km/h
Racha viento: 59.2km/h - -
Viento- - SE
Presión: 1014.6 hPa 1008.1 hPa -
Precipitación: 78.2 mm    
Historical Graphs
 
 
Tabla de datos para Abril 20, 2019
Hora Temperatura Punto de rocio Presión Viento Velocidad viento Racha viento Humedad Intensidad lluvia(por hora) Nubes
00:00 12.1 °C 11.2 °C 1014.6 hPa SW 8.0 km/h 11.3 km/h 94% 0.5 mm RA
00:05 12.1 °C 11.2 °C 1014.6 hPa WSW 8.4 km/h 11.1 km/h 94% 8.6 mm RA
00:10 12.1 °C 11.2 °C 1014.6 hPa WSW 5.0 km/h 9.3 km/h 94% 9.1 mm RA
00:15 12.1 °C 11.2 °C 1014.6 hPa SW 5.0 km/h 11.1 km/h 94% 9.7 mm RA
00:20 12.1 °C 11.3 °C 1014.3 hPa WSW 6.4 km/h 9.5 km/h 95% 9.9 mm RA
00:25 12.0 °C 11.2 °C 1014.3 hPa WSW 6.4 km/h 14.8 km/h 95% 10.4 mm RA
00:30 11.9 °C 11.1 °C 1014.3 hPa SW 8.4 km/h 11.9 km/h 95% 10.7 mm RA
00:35 11.8 °C 11.0 °C 1013.9 hPa South 8.4 km/h 13.0 km/h 95% 10.9 mm RA
00:40 11.8 °C 11.0 °C 1013.9 hPa WSW 8.7 km/h 18.5 km/h 95% 10.7 mm RA
00:45 11.8 °C 11.0 °C 1013.9 hPa WSW 8.7 km/h 16.7 km/h 95% 11.2 mm RA
00:50 11.7 °C 10.9 °C 1013.5 hPa SW 9.5 km/h 20.4 km/h 95% 11.4 mm RA
00:55 11.7 °C 10.9 °C 1013.5 hPa SW 9.5 km/h 14.0 km/h 95% 11.9 mm RA
01:00 11.7 °C 10.9 °C 1013.5 hPa SW 9.7 km/h 14.5 km/h 95% 0.0 mm RA
01:05 11.7 °C 10.9 °C 1013.2 hPa SW 10.0 km/h 12.2 km/h 95% 11.2 mm RA
01:10 11.7 °C 11.1 °C 1013.2 hPa WSW 8.4 km/h 14.8 km/h 96% 10.7 mm RA
01:15 11.8 °C 11.2 °C 1013.2 hPa South 8.4 km/h 11.1 km/h 96% 9.9 mm RA
01:20 11.7 °C 11.1 °C 1013.1 hPa South 9.5 km/h 14.8 km/h 96% 9.9 mm RA
01:25 11.8 °C 11.2 °C 1013.1 hPa South 9.5 km/h 16.1 km/h 96% 9.9 mm RA
01:30 11.8 °C 11.2 °C 1013.1 hPa South 11.9 km/h 16.7 km/h 96% 10.2 mm RA
01:35 11.8 °C 11.2 °C 1012.9 hPa SSW 11.9 km/h 23.3 km/h 96% 10.4 mm RA
01:40 11.7 °C 11.1 °C 1012.9 hPa SSW 13.0 km/h 22.2 km/h 96% 9.9 mm RA
01:45 11.7 °C 11.1 °C 1012.9 hPa South 13.0 km/h 22.0 km/h 96% 9.9 mm RA
01:50 11.7 °C 11.1 °C 1012.7 hPa SW 13.7 km/h 14.8 km/h 96% 9.4 mm RA
01:55 11.7 °C 11.1 °C 1012.7 hPa SW 13.7 km/h 18.5 km/h 96% 9.4 mm RA
02:00 11.7 °C 11.1 °C 1012.7 hPa SW 11.3 km/h 19.3 km/h 96% 0.0 mm RA
02:05 11.7 °C 11.1 °C 1012.0 hPa SW 11.1 km/h 20.4 km/h 96% 8.6 mm RA
02:10 11.7 °C 11.1 °C 1012.0 hPa WSW 14.0 km/h 20.4 km/h 96% 7.9 mm RA
02:15 11.7 °C 11.1 °C 1012.0 hPa ENE 14.0 km/h 9.3 km/h 96% 8.1 mm RA
02:20 11.7 °C 11.1 °C 1011.6 hPa SE 8.7 km/h 7.4 km/h 96% 8.4 mm RA
02:25 11.6 °C 11.0 °C 1011.6 hPa SSE 8.7 km/h 9.3 km/h 96% 9.1 mm RA
02:30 11.6 °C 11.0 °C 1011.6 hPa SSW 5.8 km/h 7.4 km/h 96% 8.4 mm RA
02:35 11.6 °C 11.0 °C 1011.2 hPa South 5.8 km/h 14.8 km/h 96% 8.6 mm RA
02:40 11.6 °C 11.0 °C 1011.2 hPa SSE 8.7 km/h 24.5 km/h 96% 8.6 mm RA
02:45 11.6 °C 11.0 °C 1011.2 hPa SW 8.7 km/h 18.0 km/h 96% 9.1 mm RA
02:50 11.5 °C 11.1 °C 1011.4 hPa SW 15.6 km/h 27.8 km/h 97% 10.4 mm RA
02:55 11.5 °C 11.1 °C 1011.4 hPa WSW 15.6 km/h 22.2 km/h 97% 11.7 mm RA
03:00 11.5 °C 11.1 °C 1011.4 hPa WSW 12.9 km/h 20.9 km/h 97% 0.3 mm RA
03:05 11.6 °C 11.0 °C 1011.3 hPa SSW 13.7 km/h 18.5 km/h 96% 13.2 mm RA
03:10 11.6 °C 11.2 °C 1011.3 hPa SW 8.7 km/h 11.1 km/h 97% 13.7 mm RA
03:15 11.5 °C 11.1 °C 1011.3 hPa WNW 8.7 km/h 9.3 km/h 97% 15.0 mm RA
03:20 11.6 °C 11.2 °C 1010.7 hPa ESE 6.9 km/h 11.1 km/h 97% 15.7 mm RA
03:25 11.5 °C 11.1 °C 1010.7 hPa SSE 6.9 km/h 11.1 km/h 97% 16.5 mm RA
03:30 11.5 °C 11.1 °C 1010.7 hPa SW 8.7 km/h 18.5 km/h 97% 16.0 mm RA
03:35 11.5 °C 11.1 °C 1010.2 hPa SSE 8.7 km/h 5.6 km/h 97% 17.5 mm RA
03:40 11.6 °C 11.2 °C 1010.2 hPa SSE 7.6 km/h 7.4 km/h 97% 17.5 mm RA
03:45 11.6 °C 11.2 °C 1010.2 hPa SSW 7.6 km/h 11.1 km/h 97% 17.5 mm RA
03:50 11.6 °C 11.2 °C 1010.0 hPa SSW 6.9 km/h 11.1 km/h 97% 17.0 mm RA
03:55 11.6 °C 11.2 °C 1010.0 hPa SSW 6.9 km/h 7.4 km/h 97% 16.8 mm RA
04:00 11.6 °C 11.2 °C 1010.0 hPa SSW 8.0 km/h 12.9 km/h 97% 0.0 mm RA
04:05 11.7 °C 11.2 °C 1009.9 hPa SSW 6.4 km/h 11.1 km/h 97% 14.5 mm RA
04:10 11.6 °C 11.2 °C 1009.9 hPa SSW 7.6 km/h 3.9 km/h 97% 13.7 mm RA
04:15 11.6 °C 11.2 °C 1009.9 hPa West 7.6 km/h 13.0 km/h 97% 13.7 mm RA
04:20 11.7 °C 11.2 °C 1009.3 hPa SW 6.4 km/h 3.7 km/h 97% 13.5 mm RA
04:25 11.7 °C 11.2 °C 1009.3 hPa WSW 6.4 km/h 7.4 km/h 97% 12.7 mm RA
04:30 11.7 °C 11.2 °C 1009.3 hPa West 3.9 km/h 9.3 km/h 97% 12.2 mm RA
04:35 11.7 °C 11.2 °C 1008.8 hPa WSW 3.9 km/h 9.3 km/h 97% 11.4 mm RA
04:40 11.7 °C 11.2 °C 1008.8 hPa South 8.4 km/h 9.3 km/h 97% 9.9 mm RA
04:45 11.7 °C 11.2 °C 1008.8 hPa WSW 8.4 km/h 7.4 km/h 97% 8.9 mm RA
04:50 11.8 °C 11.3 °C 1008.7 hPa SW 4.7 km/h 7.4 km/h 97% 7.9 mm RA
04:55 11.8 °C 11.3 °C 1008.7 hPa WSW 4.7 km/h 7.4 km/h 97% 7.6 mm RA
05:00 12.1 °C 11.7 °C 1008.7 hPa WSW 8.0 km/h 11.3 km/h 98% 0.0 mm RA
05:05 12.2 °C 11.9 °C 1008.3 hPa ESE 6.4 km/h 9.3 km/h 98% 6.1 mm RA
05:10 12.3 °C 11.8 °C 1008.3 hPa NNE 5.0 km/h 11.9 km/h 97% 5.6 mm RA
05:15 13.1 °C 12.8 °C 1008.3 hPa ENE 5.0 km/h 35.2 km/h 98% 5.1 mm RA
05:20 13.7 °C 13.4 °C 1008.2 hPa NNE 17.2 km/h 40.7 km/h 98% 4.3 mm RA
05:25 13.8 °C 13.3 °C 1008.2 hPa NE 17.2 km/h 48.1 km/h 97% 4.3 mm RA
05:30 13.9 °C 13.4 °C 1008.2 hPa NNE 28.6 km/h 37.0 km/h 97% 3.8 mm RA
05:35 13.9 °C 13.3 °C 1008.4 hPa NE 28.6 km/h 42.6 km/h 96% 3.3 mm RA
05:40 13.9 °C 13.1 °C 1008.4 hPa NE 26.2 km/h 42.6 km/h 95% 3.3 mm RA
05:45 14.0 °C 13.2 °C 1008.4 hPa NE 26.2 km/h 53.9 km/h 95% 3.6 mm RA
05:50 14.1 °C 13.2 °C 1008.1 hPa NE 29.1 km/h 40.7 km/h 94% 3.3 mm RA
05:55 14.0 °C 13.1 °C 1008.1 hPa NNE 29.1 km/h 51.8 km/h 94% 3.3 mm RA
06:00 14.0 °C 13.1 °C 1008.1 hPa NE 29.0 km/h 48.3 km/h 94% 0.0 mm RA
06:05 13.9 °C 12.9 °C 1008.2 hPa NNE 28.6 km/h 49.6 km/h 94% 3.3 mm RA
06:10 13.9 °C 12.9 °C 1008.2 hPa NE 27.4 km/h 55.5 km/h 94% 3.3 mm RA
06:15 13.9 °C 12.8 °C 1008.2 hPa ENE 27.4 km/h 59.2 km/h 93% 3.6 mm RA
06:20 13.8 °C 12.7 °C 1008.2 hPa NE 31.7 km/h 42.6 km/h 93% 3.8 mm RA
06:25 13.8 °C 12.8 °C 1008.2 hPa East 31.7 km/h 48.1 km/h 94% 3.8 mm RA
06:30 13.8 °C 12.8 °C 1008.2 hPa NNE 31.7 km/h 43.9 km/h 94% 3.0 mm RA
06:35 13.7 °C 12.8 °C 1008.7 hPa NE 31.7 km/h 44.4 km/h 94% 3.8 mm RA
06:40 13.7 °C 12.8 °C 1008.7 hPa NE 30.6 km/h 50.4 km/h 94% 4.6 mm RA
06:45 13.7 °C 12.8 °C 1008.7 hPa NNE 30.6 km/h 59.2 km/h 94% 5.3 mm RA
06:50 13.7 °C 12.8 °C 1008.6 hPa NE 31.7 km/h 35.2 km/h 94% 5.1 mm RA
06:55 13.8 °C 12.8 °C 1008.6 hPa NE 31.7 km/h 40.7 km/h 94% 5.6 mm RA
07:00 13.8 °C 12.8 °C 1008.6 hPa NE 29.0 km/h 49.9 km/h 94% 0.0 mm RA
07:05 13.8 °C 12.7 °C 1008.9 hPa NE 29.8 km/h 42.6 km/h 93% 5.6 mm RA
07:10 13.9 °C 12.6 °C 1008.9 hPa NE 27.4 km/h 53.7 km/h 92% 5.8 mm RA
07:15 14.1 °C 12.8 °C 1008.9 hPa NE 27.4 km/h 40.7 km/h 92% 6.1 mm RA
07:20 13.9 °C 12.6 °C 1009.6 hPa NNE 34.6 km/h 57.4 km/h 92% 6.3 mm RA
07:25 13.9 °C 12.8 °C 1009.6 hPa ENE 34.6 km/h 46.3 km/h 93% 6.3 mm RA
07:30 13.8 °C 12.7 °C 1009.6 hPa NE 29.1 km/h 40.7 km/h 93% 5.8 mm RA
07:35 13.7 °C 12.8 °C 1009.6 hPa NE 29.1 km/h 35.2 km/h 94% 6.1 mm RA
07:40 13.7 °C 12.8 °C 1009.6 hPa NE 26.2 km/h 44.4 km/h 94% 5.1 mm RA
07:45 13.6 °C 12.7 °C 1009.6 hPa NE 26.2 km/h 31.5 km/h 94% 4.8 mm RA
07:50 13.6 °C 12.8 °C 1009.8 hPa NE 20.1 km/h 35.2 km/h 95% 3.8 mm RA
07:55 13.6 °C 12.8 °C 1009.8 hPa NE 20.1 km/h 37.0 km/h 95% 3.6 mm
08:00 13.6 °C 12.8 °C 1009.8 hPa NE 19.3 km/h 40.2 km/h 95% 0.0 mm RA
08:05 13.6 °C 12.7 °C 1010.0 hPa ENE 18.3 km/h 29.6 km/h 94% 3.3 mm RA
08:10 13.6 °C 12.8 °C 1010.0 hPa NE 19.8 km/h 31.5 km/h 95% 3.0 mm RA
08:15 13.5 °C 12.7 °C 1010.0 hPa ENE 19.8 km/h 29.6 km/h 95% 2.5 mm RA
08:20 13.5 °C 12.7 °C 1010.2 hPa NE 16.4 km/h 25.9 km/h 95% 2.5 mm RA
08:25 13.5 °C 12.7 °C 1010.2 hPa NE 16.4 km/h 23.3 km/h 95% 2.0 mm RA
08:30 13.5 °C 12.7 °C 1010.2 hPa ENE 18.3 km/h 24.1 km/h 95% 2.0 mm RA
08:35 13.5 °C 12.9 °C 1010.2 hPa NE 18.3 km/h 25.9 km/h 96% 2.0 mm RA
08:40 13.5 °C 12.9 °C 1010.2 hPa NE 14.0 km/h 20.9 km/h 96% 2.8 mm RA
08:45 13.5 °C 12.9 °C 1010.2 hPa NE 14.0 km/h 22.2 km/h 96% 3.0 mm RA
08:50 13.4 °C 12.8 °C 1010.2 hPa NE 13.7 km/h 22.2 km/h 96% 3.0 mm RA
08:55 13.4 °C 12.8 °C 1010.2 hPa NE 13.7 km/h 19.0 km/h 96% 3.0 mm
09:00 13.4 °C 12.8 °C 1010.2 hPa NE 11.3 km/h 25.7 km/h 96% 0.0 mm RA
09:05 13.4 °C 12.8 °C 1010.1 hPa NE 11.9 km/h 25.9 km/h 96% 2.8 mm RA
09:10 13.4 °C 12.8 °C 1010.1 hPa NE 15.6 km/h 26.2 km/h 96% 3.0 mm RA
09:15 13.4 °C 12.8 °C 1010.1 hPa NE 15.6 km/h 29.6 km/h 96% 2.8 mm RA
09:20 13.4 °C 12.8 °C 1010.0 hPa NE 16.1 km/h 29.6 km/h 96% 2.5 mm
09:25 13.4 °C 12.8 °C 1010.0 hPa ENE 16.1 km/h 40.7 km/h 96% 2.8 mm RA
09:30 13.5 °C 12.9 °C 1010.0 hPa ENE 20.9 km/h 38.9 km/h 96% 2.5 mm RA
09:35 13.6 °C 13.0 °C 1010.1 hPa NE 20.9 km/h 38.9 km/h 96% 2.0 mm
09:40 13.6 °C 13.0 °C 1010.1 hPa NE 24.5 km/h 35.2 km/h 96% 2.0 mm RA
09:45 13.6 °C 13.0 °C 1010.1 hPa ENE 24.5 km/h 27.8 km/h 96% 1.5 mm RA
09:50 13.6 °C 13.0 °C 1010.2 hPa NNE 20.1 km/h 25.9 km/h 96% 1.5 mm RA
09:55 13.6 °C 13.0 °C 1010.2 hPa NE 20.1 km/h 38.9 km/h 96% 2.0 mm RA
10:00 13.6 °C 13.0 °C 1010.2 hPa NE 22.5 km/h 41.8 km/h 96% 0.0 mm RA
10:05 13.6 °C 13.0 °C 1010.3 hPa NE 22.5 km/h 40.7 km/h 96% 2.0 mm RA
10:10 13.6 °C 13.0 °C 1010.3 hPa NE 23.7 km/h 27.8 km/h 96% 2.0 mm RA
10:15 13.5 °C 12.9 °C 1010.3 hPa ENE 23.7 km/h 37.8 km/h 96% 2.0 mm RA
10:20 13.5 °C 12.9 °C 1010.2 hPa NE 22.5 km/h 38.9 km/h 96% 2.3 mm RA
10:25 13.5 °C 12.9 °C 1010.2 hPa NE 22.5 km/h 33.3 km/h 96% 2.3 mm RA
10:30 13.5 °C 12.9 °C 1010.2 hPa NNE 22.0 km/h 37.0 km/h 96% 2.5 mm RA
10:35 13.6 °C 13.0 °C 1010.4 hPa NE 22.0 km/h 38.9 km/h 96% 3.0 mm RA
10:40 13.6 °C 13.0 °C 1010.4 hPa NNE 22.0 km/h 29.6 km/h 96% 3.3 mm RA
10:45 13.6 °C 13.0 °C 1010.4 hPa NE 22.0 km/h 24.1 km/h 96% 3.0 mm RA
10:50 13.6 °C 13.1 °C 1010.5 hPa NE 17.2 km/h 24.1 km/h 97% 3.0 mm RA
10:55 13.6 °C 13.1 °C 1010.5 hPa NE 17.2 km/h 25.9 km/h 97% 2.5 mm RA
11:00 13.6 °C 13.0 °C 1010.5 hPa NE 19.3 km/h 32.2 km/h 96% 0.0 mm
11:05 13.6 °C 13.1 °C 1010.6 hPa NNE 18.3 km/h 31.5 km/h 97% 2.5 mm RA
11:10 13.6 °C 13.1 °C 1010.6 hPa ENE 20.9 km/h 33.3 km/h 97% 2.3 mm RA
11:15 13.6 °C 13.1 °C 1010.6 hPa ENE 20.9 km/h 25.9 km/h 97% 2.3 mm RA
11:20 13.6 °C 13.1 °C 1010.6 hPa NE 19.0 km/h 33.3 km/h 97% 2.3 mm RA
11:25 13.6 °C 13.1 °C 1010.6 hPa NNE 19.0 km/h 22.2 km/h 97% 2.3 mm RA
11:30 13.6 °C 13.1 °C 1010.6 hPa NE 16.1 km/h 16.7 km/h 97% 2.0 mm RA
11:35 13.6 °C 13.1 °C 1010.7 hPa ENE 16.1 km/h 19.0 km/h 97% 2.0 mm RA
11:40 13.6 °C 13.1 °C 1010.7 hPa NNE 12.2 km/h 20.4 km/h 97% 2.0 mm RA
11:45 13.6 °C 13.1 °C 1010.7 hPa ENE 12.2 km/h 13.0 km/h 97% 1.8 mm RA
11:50 13.6 °C 13.1 °C 1010.8 hPa NNE 8.4 km/h 13.0 km/h 97% 2.0 mm RA
11:55 13.6 °C 13.1 °C 1010.8 hPa NE 8.4 km/h 11.1 km/h 97% 2.0 mm RA
12:00 13.6 °C 13.1 °C 1010.8 hPa NE 8.0 km/h 11.3 km/h 97% 0.0 mm RA
12:05 13.6 °C 13.1 °C 1011.1 hPa ENE 6.9 km/h 11.1 km/h 97% 2.3 mm RA
12:10 13.6 °C 13.1 °C 1011.1 hPa NE 6.4 km/h 7.4 km/h 97% 2.3 mm RA
12:15 13.6 °C 13.1 °C 1011.1 hPa NE 6.4 km/h 7.4 km/h 97% 2.5 mm RA
12:20 13.6 °C 13.1 °C 1011.0 hPa East 5.0 km/h 9.3 km/h 97% 2.3 mm RA
12:25 13.6 °C 13.1 °C 1011.0 hPa NE 5.0 km/h 5.6 km/h 97% 2.3 mm RA
12:30 13.6 °C 13.1 °C 1011.0 hPa NNE 5.0 km/h 11.1 km/h 97% 2.0 mm RA
12:35 13.6 °C 13.1 °C 1011.0 hPa NE 5.0 km/h 7.4 km/h 97% 2.0 mm RA
12:40 13.6 °C 13.1 °C 1011.0 hPa East 5.8 km/h 10.0 km/h 97% 2.0 mm RA
12:45 13.6 °C 13.1 °C 1011.0 hPa NNE 5.8 km/h 9.3 km/h 97% 2.0 mm RA
12:50 13.6 °C 13.1 °C 1011.0 hPa WNW 5.0 km/h 7.4 km/h 97% 1.8 mm RA
12:55 13.6 °C 13.1 °C 1011.0 hPa ESE 5.0 km/h 3.7 km/h 97% 1.8 mm RA
13:00 13.6 °C 13.3 °C 1011.0 hPa East 3.2 km/h 8.0 km/h 98% 0.0 mm RA
13:05 13.5 °C 13.2 °C 1011.1 hPa NE 3.9 km/h 5.6 km/h 98% 1.8 mm RA
13:10 13.6 °C 13.3 °C 1011.1 hPa NE 3.2 km/h 5.0 km/h 98% 1.8 mm RA
13:15 13.6 °C 13.3 °C 1011.1 hPa North 3.2 km/h 5.8 km/h 98% 1.8 mm RA
13:20 13.6 °C 13.3 °C 1011.0 hPa North 2.3 km/h 3.7 km/h 98% 1.8 mm RA
13:25 13.6 °C 13.3 °C 1011.0 hPa NNW 2.3 km/h 7.4 km/h 98% 2.0 mm RA
13:30 13.7 °C 13.4 °C 1011.0 hPa NNE 3.2 km/h 11.1 km/h 98% 2.0 mm RA
13:35 13.6 °C 13.3 °C 1011.0 hPa NNE 3.2 km/h 16.7 km/h 98% 2.3 mm RA
13:40 13.6 °C 13.3 °C 1011.0 hPa NE 8.7 km/h 14.8 km/h 98% 2.0 mm RA
13:45 13.6 °C 13.3 °C 1011.0 hPa NE 8.7 km/h 20.4 km/h 98% 2.3 mm RA
13:50 13.6 °C 13.3 °C 1011.1 hPa NNE 11.1 km/h 14.8 km/h 98% 2.0 mm RA
13:55 13.6 °C 13.3 °C 1011.1 hPa North 11.1 km/h 16.7 km/h 98% 2.3 mm RA
14:00 13.6 °C 13.3 °C 1011.1 hPa NNE 9.7 km/h 17.7 km/h 98% 0.0 mm RA
14:05 13.6 °C 13.3 °C 1011.1 hPa East 10.0 km/h 16.1 km/h 98% 2.3 mm RA
14:10 13.6 °C 13.3 °C 1011.1 hPa NE 11.1 km/h 18.5 km/h 98% 2.5 mm RA
14:15 13.4 °C 13.1 °C 1011.1 hPa NE 11.1 km/h 20.4 km/h 98% 2.5 mm RA
14:20 13.5 °C 13.2 °C 1011.1 hPa NNE 12.2 km/h 16.7 km/h 98% 2.3 mm RA
14:25 13.4 °C 13.1 °C 1011.1 hPa NE 12.2 km/h 14.8 km/h 98% 2.0 mm
14:30 13.4 °C 12.9 °C 1011.1 hPa ENE 10.3 km/h 18.5 km/h 97% 2.0 mm RA
14:35 13.4 °C 12.9 °C 1011.1 hPa NE 10.3 km/h 11.1 km/h 97% 2.0 mm RA
14:40 13.4 °C 12.9 °C 1011.1 hPa ENE 10.3 km/h 16.7 km/h 97% 2.0 mm RA
14:45 13.4 °C 12.9 °C 1011.1 hPa NE 10.3 km/h 16.7 km/h 97% 2.0 mm RA
14:50 13.4 °C 12.9 °C 1011.1 hPa NE 10.0 km/h 9.3 km/h 97% 2.0 mm
14:55 13.4 °C 12.9 °C 1011.1 hPa NE 10.0 km/h 11.1 km/h 97% 2.0 mm
15:00 13.4 °C 13.0 °C 1011.1 hPa NE 8.0 km/h 11.3 km/h 97% 0.0 mm
15:05 13.4 °C 12.9 °C 1010.9 hPa ENE 6.9 km/h 15.6 km/h 97% 1.5 mm RA
15:10 13.4 °C 12.9 °C 1010.9 hPa East 11.1 km/h 7.4 km/h 97% 1.3 mm RA
15:15 13.4 °C 12.9 °C 1010.9 hPa NE 11.1 km/h 13.0 km/h 97% 1.3 mm
15:20 13.5 °C 13.1 °C 1011.1 hPa NE 5.8 km/h 9.3 km/h 97% 1.0 mm CLR
15:25 13.5 °C 13.1 °C 1011.1 hPa ENE 5.8 km/h 5.0 km/h 97% 1.0 mm CLR
15:30 13.6 °C 13.1 °C 1011.1 hPa ESE 4.7 km/h 7.4 km/h 97% 0.8 mm CLR
15:35 13.5 °C 13.1 °C 1011.2 hPa East 4.7 km/h 7.4 km/h 97% 1.0 mm RA
15:40 13.5 °C 13.1 °C 1011.2 hPa ESE 5.0 km/h 7.4 km/h 97% 1.0 mm RA
15:45 13.6 °C 13.1 °C 1011.2 hPa ESE 5.0 km/h 7.4 km/h 97% 0.5 mm
15:50 13.6 °C 13.1 °C 1011.3 hPa ESE 4.7 km/h 7.4 km/h 97% 0.5 mm CLR
15:55 13.5 °C 13.1 °C 1011.3 hPa East 4.7 km/h 7.4 km/h 97% 0.5 mm CLR
16:00 13.5 °C 13.1 °C 1011.3 hPa East 4.8 km/h 8.0 km/h 97% 0.0 mm RA
16:05 13.4 °C 12.9 °C 1011.4 hPa ESE 5.0 km/h 7.4 km/h 97% 0.5 mm RA
16:10 13.6 °C 13.1 °C 1011.4 hPa East 5.8 km/h 5.6 km/h 97% 0.5 mm
16:15 13.6 °C 13.1 °C 1011.4 hPa ENE 5.8 km/h 13.0 km/h 97% 0.5 mm
16:20 13.5 °C 13.1 °C 1011.3 hPa East 6.9 km/h 11.1 km/h 97% 0.5 mm CLR
16:25 13.4 °C 12.9 °C 1011.3 hPa ENE 6.9 km/h 22.2 km/h 97% 0.8 mm RA
16:30 13.4 °C 12.9 °C 1011.3 hPa NE 11.9 km/h 20.4 km/h 97% 0.8 mm RA
16:35 13.5 °C 12.9 °C 1011.5 hPa ENE 11.9 km/h 16.7 km/h 96% 0.8 mm
16:40 13.4 °C 12.8 °C 1011.5 hPa NE 12.2 km/h 18.5 km/h 96% 0.5 mm
16:45 13.5 °C 12.9 °C 1011.5 hPa NNE 12.2 km/h 20.4 km/h 96% 1.0 mm RA
16:50 13.5 °C 12.9 °C 1011.3 hPa NE 12.2 km/h 14.8 km/h 96% 1.0 mm RA
16:55 13.6 °C 13.0 °C 1011.3 hPa NE 12.2 km/h 14.8 km/h 96% 1.0 mm
17:00 13.6 °C 12.9 °C 1011.3 hPa NE 9.7 km/h 17.7 km/h 96% 0.0 mm
17:05 13.6 °C 13.1 °C 1011.2 hPa ENE 10.0 km/h 11.1 km/h 97% 0.8 mm CLR
17:10 13.6 °C 13.1 °C 1011.2 hPa ENE 6.9 km/h 7.4 km/h 97% 0.8 mm CLR
17:15 13.6 °C 13.1 °C 1011.2 hPa East 6.9 km/h 7.4 km/h 97% 0.8 mm CLR
17:20 13.7 °C 13.2 °C 1011.4 hPa ENE 4.7 km/h 5.6 km/h 97% 0.8 mm CLR
17:25 13.7 °C 13.1 °C 1011.4 hPa ENE 4.7 km/h 7.4 km/h 96% 0.8 mm CLR
17:30 13.7 °C 13.1 °C 1011.4 hPa NE 3.9 km/h 3.7 km/h 96% 0.5 mm CLR
17:35 13.8 °C 13.3 °C 1011.4 hPa NW 3.9 km/h 8.7 km/h 97% 0.5 mm CLR
17:40 13.8 °C 13.3 °C 1011.4 hPa NW 3.9 km/h 7.4 km/h 97% 0.5 mm CLR
17:45 13.8 °C 13.3 °C 1011.4 hPa NW 3.9 km/h 3.7 km/h 97% 0.5 mm CLR
17:50 13.9 °C 13.3 °C 1011.3 hPa NW 3.2 km/h 7.4 km/h 96% 0.0 mm CLR
17:55 13.8 °C 13.2 °C 1011.3 hPa WNW 3.2 km/h 9.3 km/h 96% 0.0 mm CLR
18:00 13.8 °C 13.2 °C 1011.3 hPa WNW 8.0 km/h 9.7 km/h 96% 0.0 mm CLR
18:05 13.9 °C 13.3 °C 1011.4 hPa WNW 6.9 km/h 9.3 km/h 96% 0.0 mm CLR
18:10 13.9 °C 13.3 °C 1011.4 hPa West 6.4 km/h 9.5 km/h 96% 0.0 mm CLR
18:15 13.9 °C 13.3 °C 1011.4 hPa West 6.4 km/h 13.0 km/h 96% 0.0 mm CLR
18:20 13.9 °C 13.3 °C 1011.4 hPa WNW 6.9 km/h 9.3 km/h 96% 0.0 mm CLR
18:25 13.9 °C 13.3 °C 1011.4 hPa WNW 6.9 km/h 7.4 km/h 96% 0.0 mm CLR
18:30 13.8 °C 13.2 °C 1011.4 hPa WNW 6.4 km/h 9.3 km/h 96% 0.0 mm CLR
18:35 13.8 °C 13.2 °C 1011.5 hPa West 6.4 km/h 9.3 km/h 96% 0.3 mm RA
18:40 13.8 °C 13.3 °C 1011.5 hPa West 6.4 km/h 7.4 km/h 97% 0.3 mm RA
18:45 13.9 °C 13.4 °C 1011.5 hPa WSW 6.4 km/h 7.4 km/h 97% 0.3 mm
18:50 13.9 °C 13.4 °C 1011.5 hPa WSW 5.0 km/h 5.8 km/h 97% 0.5 mm RA
18:55 13.9 °C 13.4 °C 1011.5 hPa West 5.0 km/h 7.4 km/h 97% 0.5 mm RA
19:00 13.9 °C 13.4 °C 1011.5 hPa West 3.2 km/h 9.7 km/h 97% 0.0 mm
19:05 13.9 °C 13.4 °C 1011.5 hPa West 4.7 km/h 7.4 km/h 97% 0.5 mm
19:10 13.9 °C 13.4 °C 1011.5 hPa NW 5.8 km/h 3.7 km/h 97% 0.5 mm CLR
19:15 13.9 °C 13.4 °C 1011.5 hPa West 5.8 km/h 7.4 km/h 97% 0.5 mm CLR
19:20 13.9 °C 13.4 °C 1011.4 hPa WSW 5.0 km/h 7.4 km/h 97% 0.5 mm CLR
19:25 13.9 °C 13.4 °C 1011.4 hPa SW 5.0 km/h 9.3 km/h 97% 0.5 mm CLR
19:30 13.9 °C 13.4 °C 1011.4 hPa WSW 5.8 km/h 9.3 km/h 97% 0.5 mm CLR
19:35 13.9 °C 13.4 °C 1011.4 hPa SW 5.8 km/h 10.0 km/h 97% 0.5 mm CLR
19:40 13.9 °C 13.3 °C 1011.4 hPa WSW 6.4 km/h 5.6 km/h 96% 0.3 mm CLR
19:45 13.9 °C 13.3 °C 1011.4 hPa WSW 6.4 km/h 5.6 km/h 96% 0.3 mm CLR
19:50 14.0 °C 13.4 °C 1011.4 hPa SW 3.9 km/h 7.4 km/h 96% 0.3 mm CLR
19:55 14.0 °C 13.4 °C 1011.4 hPa SW 3.9 km/h 6.9 km/h 96% 0.0 mm CLR
20:00 14.0 °C 13.4 °C 1011.4 hPa SW 3.2 km/h 8.0 km/h 96% 0.0 mm CLR
20:05 14.1 °C 13.4 °C 1011.5 hPa SSE 4.7 km/h 11.1 km/h 96% 0.0 mm CLR
20:10 14.1 °C 13.4 °C 1011.5 hPa SSW 5.8 km/h 11.1 km/h 96% 0.0 mm CLR
20:15 14.1 °C 13.4 °C 1011.5 hPa SSW 5.8 km/h 7.4 km/h 96% 0.0 mm CLR
20:20 14.1 °C 13.4 °C 1011.6 hPa SSW 5.8 km/h 5.6 km/h 96% 0.0 mm CLR
20:25 14.1 °C 13.4 °C 1011.6 hPa SSW 5.8 km/h 3.9 km/h 96% 0.0 mm CLR
20:30 14.1 °C 13.4 °C 1011.6 hPa SSW 3.2 km/h 7.4 km/h 96% 0.0 mm CLR
20:35 14.1 °C 13.4 °C 1011.6 hPa SSW 3.2 km/h 11.1 km/h 96% 0.0 mm CLR
20:40 14.1 °C 13.4 °C 1011.6 hPa SSW 5.8 km/h 10.0 km/h 96% 0.0 mm CLR
20:45 14.1 °C 13.4 °C 1011.6 hPa South 5.8 km/h 7.4 km/h 96% 0.0 mm CLR
20:50 14.1 °C 13.4 °C 1011.8 hPa South 6.4 km/h 7.4 km/h 96% 0.0 mm CLR
20:55 14.1 °C 13.4 °C 1011.8 hPa South 6.4 km/h 9.3 km/h 96% 0.0 mm CLR
21:00 14.1 °C 13.4 °C 1011.8 hPa SSE 4.8 km/h 9.7 km/h 96% 0.0 mm CLR
21:05 14.0 °C 13.4 °C 1011.9 hPa South 5.8 km/h 9.3 km/h 96% 0.0 mm CLR
21:10 14.1 °C 13.4 °C 1011.9 hPa SSE 6.4 km/h 9.3 km/h 96% 0.0 mm CLR
21:15 14.1 °C 13.4 °C 1011.9 hPa ESE 6.4 km/h 7.4 km/h 96% 0.0 mm CLR
21:20 14.0 °C 13.4 °C 1012.1 hPa SE 5.8 km/h 7.6 km/h 96% 0.0 mm CLR
21:25 13.9 °C 13.3 °C 1012.1 hPa South 5.8 km/h 9.3 km/h 96% 0.0 mm CLR
21:30 13.8 °C 13.2 °C 1012.1 hPa SE 7.6 km/h 7.6 km/h 96% 0.0 mm CLR
21:35 13.8 °C 13.2 °C 1012.3 hPa SE 7.6 km/h 9.3 km/h 96% 0.0 mm CLR
21:40 13.8 °C 13.0 °C 1012.3 hPa South 6.9 km/h 7.4 km/h 95% 0.0 mm CLR
21:45 13.8 °C 13.0 °C 1012.3 hPa ESE 6.9 km/h 7.4 km/h 95% 0.0 mm CLR
21:50 13.8 °C 13.0 °C 1012.4 hPa SSE 5.8 km/h 9.3 km/h 95% 0.0 mm CLR
21:55 13.8 °C 13.0 °C 1012.4 hPa South 5.8 km/h 9.3 km/h 95% 0.0 mm CLR
22:00 13.8 °C 12.8 °C 1012.4 hPa South 8.0 km/h 11.3 km/h 94% 0.0 mm CLR
22:05 13.9 °C 12.9 °C 1012.5 hPa SSE 6.9 km/h 5.6 km/h 94% 0.0 mm CLR
22:10 13.9 °C 12.9 °C 1012.5 hPa SSE 5.0 km/h 7.4 km/h 94% 0.0 mm CLR
22:15 13.9 °C 12.8 °C 1012.5 hPa SSW 5.0 km/h 7.4 km/h 93% 0.0 mm CLR
22:20 13.9 °C 12.8 °C 1012.4 hPa SSW 5.0 km/h 7.4 km/h 93% 0.0 mm CLR
22:25 13.9 °C 12.8 °C 1012.4 hPa SSW 5.0 km/h 7.4 km/h 93% 0.0 mm CLR
22:30 14.0 °C 12.9 °C 1012.4 hPa SSW 5.0 km/h 7.4 km/h 93% 0.0 mm CLR
22:35 14.1 °C 12.8 °C 1012.4 hPa SSW 5.0 km/h 7.4 km/h 92% 0.0 mm CLR
22:40 14.1 °C 12.8 °C 1012.4 hPa SW 5.8 km/h 9.3 km/h 92% 0.0 mm CLR
22:45 14.2 °C 12.9 °C 1012.4 hPa WSW 5.8 km/h 7.4 km/h 92% 0.0 mm CLR
22:50 14.2 °C 12.8 °C 1012.4 hPa WSW 5.8 km/h 7.4 km/h 91% 0.0 mm CLR
22:55 14.2 °C 12.8 °C 1012.4 hPa WSW 5.8 km/h 6.9 km/h 91% 0.0 mm CLR
23:00 14.2 °C 12.8 °C 1012.4 hPa SW 3.2 km/h 9.7 km/h 91% 0.0 mm CLR
23:05 14.2 °C 12.8 °C 1012.3 hPa SW 3.9 km/h 9.3 km/h 91% 0.0 mm CLR
23:10 14.2 °C 12.8 °C 1012.3 hPa SSW 6.4 km/h 9.3 km/h 91% 0.0 mm CLR
23:15 14.2 °C 12.8 °C 1012.3 hPa SW 6.4 km/h 5.6 km/h 91% 0.0 mm CLR
23:20 14.2 °C 12.8 °C 1012.3 hPa SW 4.7 km/h 7.4 km/h 91% 0.0 mm CLR
23:25 14.2 °C 12.8 °C 1012.3 hPa SW 4.7 km/h 7.4 km/h 91% 0.0 mm CLR
23:30 14.2 °C 12.8 °C 1012.3 hPa SW 4.7 km/h 7.4 km/h 91% 0.0 mm CLR
23:35 14.2 °C 12.8 °C 1012.2 hPa SW 4.7 km/h 7.4 km/h 91% 0.0 mm CLR
23:40 14.2 °C 12.8 °C 1012.2 hPa SW 3.9 km/h 5.6 km/h 91% 0.0 mm CLR
23:45 14.2 °C 12.9 °C 1012.2 hPa South 3.9 km/h 7.4 km/h 92% 0.0 mm CLR
23:50 14.2 °C 12.9 °C 1012.1 hPa SSE 3.9 km/h 7.4 km/h 92% 0.0 mm CLR
23:55 14.2 °C 12.9 °C 1012.1 hPa South 3.9 km/h 7.4 km/h 92% 0.0 mm CLR
Murcia-Puente Tocinos, España
Compliments of Weather Underground - 2.75 mb

La estación de MeteoMurcia.com, publica sus datos en los siguientes proyectos:

Weather Underground PWS IMURCIAP2 Meteoclimatic www.awekas.at

W3Counter
Web Analytics